sensor_id;sensor_type;location;lat;lon;timestamp;P1;durP1;ratioP1;P2;durP2;ratioP2
25917;SDS011;13899;51.174;4.456;2022-09-27T00:02:16;3.83;;;1.20;;
25917;SDS011;13899;51.174;4.456;2022-09-27T00:04:41;5.85;;;1.00;;
25917;SDS011;13899;51.174;4.456;2022-09-27T00:07:07;5.90;;;0.80;;
25917;SDS011;13899;51.174;4.456;2022-09-27T00:09:35;6.00;;;1.00;;
25917;SDS011;13899;51.174;4.456;2022-09-27T00:12:01;2.72;;;1.08;;
25917;SDS011;13899;51.174;4.456;2022-09-27T00:14:26;3.88;;;0.93;;
25917;SDS011;13899;51.174;4.456;2022-09-27T00:16:52;4.22;;;1.15;;
25917;SDS011;13899;51.174;4.456;2022-09-27T00:19:18;5.32;;;0.80;;
25917;SDS011;13899;51.174;4.456;2022-09-27T00:21:46;8.88;;;1.00;;
25917;SDS011;13899;51.174;4.456;2022-09-27T00:24:18;2.75;;;0.80;;
25917;SDS011;13899;51.174;4.456;2022-09-27T00:26:46;3.05;;;0.70;;
25917;SDS011;13899;51.174;4.456;2022-09-27T00:29:13;4.10;;;0.85;;
25917;SDS011;13899;51.174;4.456;2022-09-27T00:31:40;4.88;;;0.90;;
25917;SDS011;13899;51.174;4.456;2022-09-27T00:34:06;8.32;;;1.10;;
25917;SDS011;13899;51.174;4.456;2022-09-27T00:36:35;3.95;;;0.90;;
25917;SDS011;13899;51.174;4.456;2022-09-27T00:39:01;7.25;;;0.90;;
25917;SDS011;13899;51.174;4.456;2022-09-27T00:41:31;4.20;;;0.90;;
25917;SDS011;13899;51.174;4.456;2022-09-27T00:43:59;3.05;;;0.55;;
25917;SDS011;13899;51.174;4.456;2022-09-27T00:51:42;4.75;;;0.70;;
25917;SDS011;13899;51.174;4.456;2022-09-27T00:54:12;4.40;;;1.00;;
25917;SDS011;13899;51.174;4.456;2022-09-27T00:56:40;3.15;;;0.50;;
25917;SDS011;13899;51.174;4.456;2022-09-27T00:59:10;5.30;;;1.20;;
25917;SDS011;13899;51.174;4.456;2022-09-27T01:01:41;3.75;;;0.70;;
25917;SDS011;13899;51.174;4.456;2022-09-27T01:06:42;8.00;;;1.30;;
25917;SDS011;13899;51.174;4.456;2022-09-27T01:09:08;3.67;;;1.10;;
25917;SDS011;13899;51.174;4.456;2022-09-27T01:11:47;5.63;;;1.20;;
25917;SDS011;13899;51.174;4.456;2022-09-27T01:14:31;7.15;;;1.38;;
25917;SDS011;13899;51.174;4.456;2022-09-27T01:25:24;5.15;;;1.10;;
25917;SDS011;13899;51.174;4.456;2022-09-27T01:31:01;3.88;;;0.73;;
25917;SDS011;13899;51.174;4.456;2022-09-27T01:39:31;4.72;;;0.80;;
25917;SDS011;13899;51.174;4.456;2022-09-27T01:42:59;3.97;;;0.70;;
25917;SDS011;13899;51.174;4.456;2022-09-27T01:45:03;3.22;;;0.70;;
25917;SDS011;13899;51.174;4.456;2022-09-27T01:47:41;4.32;;;0.80;;
25917;SDS011;13899;51.174;4.456;2022-09-27T01:50:08;2.40;;;0.65;;
25917;SDS011;13899;51.174;4.456;2022-09-27T01:52:43;2.17;;;0.65;;
25917;SDS011;13899;51.174;4.456;2022-09-27T01:55:17;3.30;;;0.60;;
25917;SDS011;13899;51.174;4.456;2022-09-27T01:57:48;1.98;;;0.50;;
25917;SDS011;13899;51.174;4.456;2022-09-27T02:00:19;2.38;;;0.40;;
25917;SDS011;13899;51.174;4.456;2022-09-27T02:02:46;4.65;;;0.60;;
25917;SDS011;13899;51.174;4.456;2022-09-27T02:05:21;2.33;;;0.75;;
25917;SDS011;13899;51.174;4.456;2022-09-27T02:07:54;1.77;;;0.40;;
25917;SDS011;13899;51.174;4.456;2022-09-27T02:10:28;2.35;;;0.40;;
25917;SDS011;13899;51.174;4.456;2022-09-27T02:13:12;1.85;;;0.40;;
25917;SDS011;13899;51.174;4.456;2022-09-27T02:15:49;1.95;;;0.70;;
25917;SDS011;13899;51.174;4.456;2022-09-27T02:18:33;2.08;;;0.40;;
25917;SDS011;13899;51.174;4.456;2022-09-27T02:21:10;1.95;;;0.30;;
25917;SDS011;13899;51.174;4.456;2022-09-27T02:23:39;0.88;;;0.30;;
25917;SDS011;13899;51.174;4.456;2022-09-27T02:26:16;3.50;;;0.70;;
25917;SDS011;13899;51.174;4.456;2022-09-27T02:29:06;0.95;;;0.30;;
25917;SDS011;13899;51.174;4.456;2022-09-27T02:31:35;1.33;;;0.40;;
25917;SDS011;13899;51.174;4.456;2022-09-27T02:34:11;0.75;;;0.32;;
25917;SDS011;13899;51.174;4.456;2022-09-27T02:36:46;1.45;;;0.38;;
25917;SDS011;13899;51.174;4.456;2022-09-27T02:39:13;1.30;;;0.27;;
25917;SDS011;13899;51.174;4.456;2022-09-27T02:41:39;2.80;;;0.40;;
25917;SDS011;13899;51.174;4.456;2022-09-27T02:44:06;1.13;;;0.40;;
25917;SDS011;13899;51.174;4.456;2022-09-27T02:46:42;0.57;;;0.20;;
25917;SDS011;13899;51.174;4.456;2022-09-27T02:49:52;1.92;;;0.25;;
25917;SDS011;13899;51.174;4.456;2022-09-27T02:55:28;1.73;;;0.28;;
25917;SDS011;13899;51.174;4.456;2022-09-27T02:59:06;2.38;;;0.43;;
25917;SDS011;13899;51.174;4.456;2022-09-27T03:01:26;1.02;;;0.30;;
25917;SDS011;13899;51.174;4.456;2022-09-27T03:06:45;0.60;;;0.20;;
25917;SDS011;13899;51.174;4.456;2022-09-27T03:09:22;1.27;;;0.40;;
25917;SDS011;13899;51.174;4.456;2022-09-27T03:11:53;0.20;;;0.20;;
25917;SDS011;13899;51.174;4.456;2022-09-27T03:14:18;0.95;;;0.30;;
25917;SDS011;13899;51.174;4.456;2022-09-27T03:16:44;2.47;;;0.20;;
25917;SDS011;13899;51.174;4.456;2022-09-27T03:19:10;0.55;;;0.30;;
25917;SDS011;13899;51.174;4.456;2022-09-27T03:21:35;0.73;;;0.50;;
25917;SDS011;13899;51.174;4.456;2022-09-27T03:24:01;1.35;;;0.40;;
25917;SDS011;13899;51.174;4.456;2022-09-27T03:26:27;0.63;;;0.30;;
25917;SDS011;13899;51.174;4.456;2022-09-27T03:28:53;3.10;;;0.30;;
25917;SDS011;13899;51.174;4.456;2022-09-27T03:31:19;1.77;;;0.60;;
25917;SDS011;13899;51.174;4.456;2022-09-27T03:33:44;1.00;;;0.63;;
25917;SDS011;13899;51.174;4.456;2022-09-27T03:36:10;2.22;;;0.70;;
25917;SDS011;13899;51.174;4.456;2022-09-27T03:38:36;4.60;;;0.75;;
25917;SDS011;13899;51.174;4.456;2022-09-27T03:41:02;1.02;;;0.70;;
25917;SDS011;13899;51.174;4.456;2022-09-27T03:43:28;2.78;;;0.95;;
25917;SDS011;13899;51.174;4.456;2022-09-27T03:45:54;2.10;;;0.80;;
25917;SDS011;13899;51.174;4.456;2022-09-27T03:48:20;1.23;;;0.90;;
25917;SDS011;13899;51.174;4.456;2022-09-27T03:50:45;1.80;;;0.80;;
25917;SDS011;13899;51.174;4.456;2022-09-27T03:53:11;2.60;;;0.93;;
25917;SDS011;13899;51.174;4.456;2022-09-27T03:55:37;2.85;;;1.30;;
25917;SDS011;13899;51.174;4.456;2022-09-27T03:58:02;3.05;;;0.85;;
25917;SDS011;13899;51.174;4.456;2022-09-27T04:00:30;4.25;;;1.30;;
25917;SDS011;13899;51.174;4.456;2022-09-27T04:03:01;2.53;;;1.27;;
25917;SDS011;13899;51.174;4.456;2022-09-27T04:05:27;2.95;;;1.02;;
25917;SDS011;13899;51.174;4.456;2022-09-27T04:07:53;2.47;;;0.95;;
25917;SDS011;13899;51.174;4.456;2022-09-27T04:10:18;2.10;;;0.98;;
25917;SDS011;13899;51.174;4.456;2022-09-27T04:12:44;2.97;;;1.10;;
25917;SDS011;13899;51.174;4.456;2022-09-27T04:15:10;3.38;;;1.00;;
25917;SDS011;13899;51.174;4.456;2022-09-27T04:17:39;1.53;;;0.60;;
25917;SDS011;13899;51.174;4.456;2022-09-27T04:20:06;2.13;;;0.90;;
25917;SDS011;13899;51.174;4.456;2022-09-27T04:22:33;2.42;;;0.95;;
25917;SDS011;13899;51.174;4.456;2022-09-27T04:24:58;1.92;;;0.73;;
25917;SDS011;13899;51.174;4.456;2022-09-27T04:27:24;1.80;;;0.88;;
25917;SDS011;13899;51.174;4.456;2022-09-27T04:29:49;2.00;;;0.95;;
25917;SDS011;13899;51.174;4.456;2022-09-27T04:32:16;2.15;;;0.80;;
25917;SDS011;13899;51.174;4.456;2022-09-27T04:34:41;2.15;;;0.85;;
25917;SDS011;13899;51.174;4.456;2022-09-27T04:37:25;2.80;;;1.10;;
25917;SDS011;13899;51.174;4.456;2022-09-27T04:39:51;4.05;;;1.15;;
25917;SDS011;13899;51.174;4.456;2022-09-27T04:42:17;1.90;;;1.00;;
25917;SDS011;13899;51.174;4.456;2022-09-27T04:44:43;2.17;;;0.93;;
25917;SDS011;13899;51.174;4.456;2022-09-27T04:47:08;1.95;;;1.08;;
25917;SDS011;13899;51.174;4.456;2022-09-27T04:49:34;2.25;;;0.90;;
25917;SDS011;13899;51.174;4.456;2022-09-27T04:52:00;1.50;;;0.93;;
25917;SDS011;13899;51.174;4.456;2022-09-27T04:54:25;1.88;;;0.90;;
25917;SDS011;13899;51.174;4.456;2022-09-27T04:56:51;4.32;;;1.05;;
25917;SDS011;13899;51.174;4.456;2022-09-27T04:59:17;3.88;;;1.50;;
25917;SDS011;13899;51.174;4.456;2022-09-27T05:01:42;3.38;;;1.50;;
25917;SDS011;13899;51.174;4.456;2022-09-27T05:04:09;3.30;;;1.55;;
25917;SDS011;13899;51.174;4.456;2022-09-27T05:06:34;2.28;;;1.48;;
25917;SDS011;13899;51.174;4.456;2022-09-27T05:09:00;4.03;;;1.80;;
25917;SDS011;13899;51.174;4.456;2022-09-27T05:11:26;2.80;;;1.90;;
25917;SDS011;13899;51.174;4.456;2022-09-27T05:13:51;5.15;;;2.50;;
25917;SDS011;13899;51.174;4.456;2022-09-27T05:16:17;4.78;;;2.53;;
25917;SDS011;13899;51.174;4.456;2022-09-27T05:18:44;5.75;;;3.10;;
25917;SDS011;13899;51.174;4.456;2022-09-27T05:21:09;6.85;;;2.70;;
25917;SDS011;13899;51.174;4.456;2022-09-27T05:23:35;4.33;;;3.17;;
25917;SDS011;13899;51.174;4.456;2022-09-27T05:26:04;4.80;;;4.10;;
25917;SDS011;13899;51.174;4.456;2022-09-27T05:28:33;4.85;;;3.42;;
25917;SDS011;13899;51.174;4.456;2022-09-27T05:31:02;5.40;;;3.95;;
25917;SDS011;13899;51.174;4.456;2022-09-27T05:33:28;5.75;;;3.83;;
25917;SDS011;13899;51.174;4.456;2022-09-27T05:35:54;6.05;;;3.50;;
25917;SDS011;13899;51.174;4.456;2022-09-27T05:38:21;7.93;;;4.47;;
25917;SDS011;13899;51.174;4.456;2022-09-27T05:40:47;7.32;;;4.60;;
25917;SDS011;13899;51.174;4.456;2022-09-27T05:43:14;5.68;;;4.10;;
25917;SDS011;13899;51.174;4.456;2022-09-27T05:45:41;5.75;;;4.25;;
25917;SDS011;13899;51.174;4.456;2022-09-27T05:48:08;9.43;;;5.40;;
25917;SDS011;13899;51.174;4.456;2022-09-27T05:50:34;6.53;;;5.47;;
25917;SDS011;13899;51.174;4.456;2022-09-27T05:53:00;8.52;;;6.78;;
25917;SDS011;13899;51.174;4.456;2022-09-27T05:55:26;9.07;;;5.65;;
25917;SDS011;13899;51.174;4.456;2022-09-27T05:57:57;12.63;;;6.78;;
25917;SDS011;13899;51.174;4.456;2022-09-27T06:00:29;8.30;;;6.05;;
25917;SDS011;13899;51.174;4.456;2022-09-27T06:02:59;9.98;;;6.75;;
25917;SDS011;13899;51.174;4.456;2022-09-27T06:05:28;10.98;;;6.95;;
25917;SDS011;13899;51.174;4.456;2022-09-27T06:07:58;8.85;;;6.75;;
25917;SDS011;13899;51.174;4.456;2022-09-27T06:10:27;9.38;;;7.32;;
25917;SDS011;13899;51.174;4.456;2022-09-27T06:12:57;11.82;;;6.78;;
25917;SDS011;13899;51.174;4.456;2022-09-27T06:15:28;10.30;;;8.23;;
25917;SDS011;13899;51.174;4.456;2022-09-27T06:17:55;11.73;;;7.95;;
25917;SDS011;13899;51.174;4.456;2022-09-27T06:20:21;9.95;;;7.53;;
25917;SDS011;13899;51.174;4.456;2022-09-27T06:22:47;12.05;;;8.65;;
25917;SDS011;13899;51.174;4.456;2022-09-27T06:25:13;10.88;;;8.48;;
25917;SDS011;13899;51.174;4.456;2022-09-27T06:27:38;9.20;;;8.20;;
25917;SDS011;13899;51.174;4.456;2022-09-27T06:30:04;13.23;;;8.63;;
25917;SDS011;13899;51.174;4.456;2022-09-27T06:32:30;14.80;;;8.10;;
25917;SDS011;13899;51.174;4.456;2022-09-27T06:34:56;11.80;;;8.50;;
25917;SDS011;13899;51.174;4.456;2022-09-27T06:37:25;9.52;;;7.88;;
25917;SDS011;13899;51.174;4.456;2022-09-27T06:39:52;10.23;;;8.18;;
25917;SDS011;13899;51.174;4.456;2022-09-27T06:42:18;8.00;;;7.25;;
25917;SDS011;13899;51.174;4.456;2022-09-27T06:44:44;13.02;;;7.47;;
25917;SDS011;13899;51.174;4.456;2022-09-27T06:47:14;16.80;;;9.93;;
25917;SDS011;13899;51.174;4.456;2022-09-27T06:49:40;9.90;;;7.25;;
25917;SDS011;13899;51.174;4.456;2022-09-27T06:52:06;12.03;;;7.50;;
25917;SDS011;13899;51.174;4.456;2022-09-27T06:54:32;10.25;;;7.45;;
25917;SDS011;13899;51.174;4.456;2022-09-27T06:56:58;7.82;;;7.03;;
25917;SDS011;13899;51.174;4.456;2022-09-27T06:59:23;7.43;;;6.47;;
25917;SDS011;13899;51.174;4.456;2022-09-27T07:02:07;8.23;;;6.80;;
25917;SDS011;13899;51.174;4.456;2022-09-27T07:04:34;8.15;;;6.53;;
25917;SDS011;13899;51.174;4.456;2022-09-27T07:07:00;10.97;;;6.67;;
25917;SDS011;13899;51.174;4.456;2022-09-27T07:09:25;7.93;;;6.47;;
25917;SDS011;13899;51.174;4.456;2022-09-27T07:11:51;6.65;;;5.97;;
25917;SDS011;13899;51.174;4.456;2022-09-27T07:14:19;6.80;;;5.85;;
25917;SDS011;13899;51.174;4.456;2022-09-27T07:16:45;7.50;;;6.13;;
25917;SDS011;13899;51.174;4.456;2022-09-27T07:19:11;6.55;;;5.70;;
25917;SDS011;13899;51.174;4.456;2022-09-27T07:21:38;9.98;;;6.32;;
25917;SDS011;13899;51.174;4.456;2022-09-27T07:24:04;7.63;;;6.20;;
25917;SDS011;13899;51.174;4.456;2022-09-27T07:26:29;6.63;;;5.93;;
25917;SDS011;13899;51.174;4.456;2022-09-27T07:28:55;6.63;;;5.97;;
25917;SDS011;13899;51.174;4.456;2022-09-27T07:31:22;7.38;;;6.68;;
25917;SDS011;13899;51.174;4.456;2022-09-27T07:33:48;6.50;;;5.82;;
25917;SDS011;13899;51.174;4.456;2022-09-27T07:36:14;8.40;;;6.18;;
25917;SDS011;13899;51.174;4.456;2022-09-27T07:38:40;8.27;;;6.00;;
25917;SDS011;13899;51.174;4.456;2022-09-27T07:41:11;7.43;;;5.75;;
25917;SDS011;13899;51.174;4.456;2022-09-27T07:43:39;8.07;;;5.22;;
25917;SDS011;13899;51.174;4.456;2022-09-27T07:46:05;7.03;;;6.40;;
25917;SDS011;13899;51.174;4.456;2022-09-27T07:48:31;8.05;;;5.90;;
25917;SDS011;13899;51.174;4.456;2022-09-27T07:50:57;11.73;;;6.03;;
25917;SDS011;13899;51.174;4.456;2022-09-27T07:53:24;7.35;;;5.57;;
25917;SDS011;13899;51.174;4.456;2022-09-27T07:55:52;8.02;;;6.57;;
25917;SDS011;13899;51.174;4.456;2022-09-27T07:58:18;7.63;;;6.75;;
25917;SDS011;13899;51.174;4.456;2022-09-27T08:00:45;11.43;;;6.68;;
25917;SDS011;13899;51.174;4.456;2022-09-27T08:03:11;8.80;;;6.60;;
25917;SDS011;13899;51.174;4.456;2022-09-27T08:05:45;9.65;;;6.88;;
25917;SDS011;13899;51.174;4.456;2022-09-27T08:08:12;12.10;;;7.53;;
25917;SDS011;13899;51.174;4.456;2022-09-27T08:10:38;9.43;;;6.65;;
25917;SDS011;13899;51.174;4.456;2022-09-27T08:13:08;11.43;;;6.82;;
25917;SDS011;13899;51.174;4.456;2022-09-27T08:15:34;8.88;;;7.13;;
25917;SDS011;13899;51.174;4.456;2022-09-27T08:18:03;11.25;;;7.25;;
25917;SDS011;13899;51.174;4.456;2022-09-27T08:22:55;10.73;;;6.80;;
25917;SDS011;13899;51.174;4.456;2022-09-27T08:25:21;8.43;;;6.85;;
25917;SDS011;13899;51.174;4.456;2022-09-27T08:27:55;8.60;;;7.57;;
25917;SDS011;13899;51.174;4.456;2022-09-27T08:30:21;9.48;;;7.97;;
25917;SDS011;13899;51.174;4.456;2022-09-27T08:32:47;9.38;;;8.55;;
25917;SDS011;13899;51.174;4.456;2022-09-27T08:35:13;11.90;;;8.38;;
25917;SDS011;13899;51.174;4.456;2022-09-27T08:37:39;8.68;;;7.90;;
25917;SDS011;13899;51.174;4.456;2022-09-27T08:40:05;10.45;;;8.40;;
25917;SDS011;13899;51.174;4.456;2022-09-27T08:42:37;9.10;;;8.30;;
25917;SDS011;13899;51.174;4.456;2022-09-27T08:45:15;9.02;;;7.85;;
25917;SDS011;13899;51.174;4.456;2022-09-27T08:47:48;7.78;;;7.07;;
25917;SDS011;13899;51.174;4.456;2022-09-27T08:54:23;7.22;;;5.43;;
25917;SDS011;13899;51.174;4.456;2022-09-27T08:56:19;10.18;;;6.80;;
25917;SDS011;13899;51.174;4.456;2022-09-27T09:01:17;6.38;;;5.28;;
25917;SDS011;13899;51.174;4.456;2022-09-27T09:03:51;5.03;;;4.60;;
25917;SDS011;13899;51.174;4.456;2022-09-27T09:17:56;4.70;;;4.25;;
25917;SDS011;13899;51.174;4.456;2022-09-27T09:26:04;4.82;;;3.83;;
25917;SDS011;13899;51.174;4.456;2022-09-27T09:32:05;5.60;;;3.70;;
25917;SDS011;13899;51.174;4.456;2022-09-27T09:35:33;4.97;;;3.70;;
25917;SDS011;13899;51.174;4.456;2022-09-27T09:37:55;7.90;;;4.78;;
25917;SDS011;13899;51.174;4.456;2022-09-27T09:43:24;4.55;;;4.13;;
25917;SDS011;13899;51.174;4.456;2022-09-27T09:45:55;6.53;;;4.27;;
25917;SDS011;13899;51.174;4.456;2022-09-27T09:48:32;7.60;;;3.75;;
25917;SDS011;13899;51.174;4.456;2022-09-27T09:51:04;6.00;;;3.40;;
25917;SDS011;13899;51.174;4.456;2022-09-27T10:01:27;5.80;;;3.70;;
25917;SDS011;13899;51.174;4.456;2022-09-27T10:04:00;3.83;;;3.35;;
25917;SDS011;13899;51.174;4.456;2022-09-27T10:06:26;7.05;;;3.38;;
25917;SDS011;13899;51.174;4.456;2022-09-27T10:08:54;6.22;;;3.90;;
25917;SDS011;13899;51.174;4.456;2022-09-27T10:11:24;5.45;;;3.30;;
25917;SDS011;13899;51.174;4.456;2022-09-27T10:13:52;3.90;;;3.50;;
25917;SDS011;13899;51.174;4.456;2022-09-27T10:16:20;5.30;;;2.90;;
25917;SDS011;13899;51.174;4.456;2022-09-27T10:18:46;4.38;;;3.78;;
25917;SDS011;13899;51.174;4.456;2022-09-27T10:21:22;7.85;;;4.25;;
25917;SDS011;13899;51.174;4.456;2022-09-27T10:24:11;6.80;;;4.75;;
25917;SDS011;13899;51.174;4.456;2022-09-27T10:26:42;7.80;;;4.80;;
25917;SDS011;13899;51.174;4.456;2022-09-27T10:31:44;7.78;;;6.93;;
25917;SDS011;13899;51.174;4.456;2022-09-27T10:34:16;7.38;;;6.63;;
25917;SDS011;13899;51.174;4.456;2022-09-27T10:39:41;10.35;;;8.25;;
25917;SDS011;13899;51.174;4.456;2022-09-27T10:44:57;7.50;;;6.80;;
25917;SDS011;13899;51.174;4.456;2022-09-27T10:47:43;5.93;;;4.85;;
25917;SDS011;13899;51.174;4.456;2022-09-27T10:50:10;6.05;;;4.10;;
25917;SDS011;13899;51.174;4.456;2022-09-27T10:52:45;5.70;;;3.50;;
25917;SDS011;13899;51.174;4.456;2022-09-27T10:55:22;5.80;;;2.83;;
25917;SDS011;13899;51.174;4.456;2022-09-27T10:57:52;4.95;;;2.58;;
25917;SDS011;13899;51.174;4.456;2022-09-27T11:00:23;6.00;;;2.70;;
25917;SDS011;13899;51.174;4.456;2022-09-27T11:02:58;4.03;;;1.70;;
25917;SDS011;13899;51.174;4.456;2022-09-27T11:05:31;2.80;;;1.13;;
25917;SDS011;13899;51.174;4.456;2022-09-27T11:10:43;2.83;;;1.00;;
25917;SDS011;13899;51.174;4.456;2022-09-27T11:13:23;3.88;;;1.10;;
25917;SDS011;13899;51.174;4.456;2022-09-27T11:15:53;3.37;;;0.70;;
25917;SDS011;13899;51.174;4.456;2022-09-27T11:29:20;5.07;;;0.95;;
25917;SDS011;13899;51.174;4.456;2022-09-27T11:35:09;2.42;;;0.80;;
25917;SDS011;13899;51.174;4.456;2022-09-27T11:43:21;2.92;;;1.20;;
25917;SDS011;13899;51.174;4.456;2022-09-27T11:46:33;2.25;;;0.60;;
25917;SDS011;13899;51.174;4.456;2022-09-27T11:48:58;2.80;;;0.77;;
25917;SDS011;13899;51.174;4.456;2022-09-27T11:57:38;2.28;;;0.40;;
25917;SDS011;13899;51.174;4.456;2022-09-27T12:03:07;1.67;;;0.47;;
25917;SDS011;13899;51.174;4.456;2022-09-27T12:11:22;2.15;;;0.50;;
25917;SDS011;13899;51.174;4.456;2022-09-27T12:14:21;2.92;;;0.60;;
25917;SDS011;13899;51.174;4.456;2022-09-27T12:17:01;2.25;;;0.55;;
25917;SDS011;13899;51.174;4.456;2022-09-27T12:19:35;3.80;;;0.85;;
25917;SDS011;13899;51.174;4.456;2022-09-27T12:22:05;3.38;;;0.82;;
25917;SDS011;13899;51.174;4.456;2022-09-27T12:24:34;2.78;;;1.40;;
25917;SDS011;13899;51.174;4.456;2022-09-27T12:27:06;2.97;;;1.23;;
25917;SDS011;13899;51.174;4.456;2022-09-27T12:29:39;2.13;;;0.90;;
25917;SDS011;13899;51.174;4.456;2022-09-27T12:43:01;4.07;;;1.20;;
25917;SDS011;13899;51.174;4.456;2022-09-27T12:45:47;3.10;;;0.63;;
25917;SDS011;13899;51.174;4.456;2022-09-27T12:51:21;2.30;;;0.80;;
25917;SDS011;13899;51.174;4.456;2022-09-27T12:59:15;5.93;;;1.27;;
25917;SDS011;13899;51.174;4.456;2022-09-27T13:07:10;4.25;;;1.40;;
25917;SDS011;13899;51.174;4.456;2022-09-27T13:17:47;4.60;;;1.02;;
25917;SDS011;13899;51.174;4.456;2022-09-27T13:22:58;2.45;;;1.10;;
25917;SDS011;13899;51.174;4.456;2022-09-27T13:31:12;3.90;;;0.90;;
25917;SDS011;13899;51.174;4.456;2022-09-27T13:46:57;3.78;;;1.70;;
25917;SDS011;13899;51.174;4.456;2022-09-27T13:52:01;4.22;;;1.30;;
25917;SDS011;13899;51.174;4.456;2022-09-27T13:54:54;4.15;;;1.08;;
25917;SDS011;13899;51.174;4.456;2022-09-27T14:00:23;5.72;;;1.65;;
25917;SDS011;13899;51.174;4.456;2022-09-27T14:02:58;4.60;;;1.30;;
25917;SDS011;13899;51.174;4.456;2022-09-27T14:05:36;5.80;;;1.63;;
25917;SDS011;13899;51.174;4.456;2022-09-27T14:08:05;10.30;;;1.85;;
25917;SDS011;13899;51.174;4.456;2022-09-27T14:10:44;5.18;;;1.60;;
25917;SDS011;13899;51.174;4.456;2022-09-27T14:13:09;5.50;;;1.48;;
25917;SDS011;13899;51.174;4.456;2022-09-27T14:15:43;4.30;;;1.20;;
25917;SDS011;13899;51.174;4.456;2022-09-27T14:18:10;9.20;;;1.95;;
25917;SDS011;13899;51.174;4.456;2022-09-27T14:20:43;4.60;;;1.60;;
25917;SDS011;13899;51.174;4.456;2022-09-27T14:23:17;7.35;;;1.60;;
25917;SDS011;13899;51.174;4.456;2022-09-27T14:25:51;3.85;;;1.20;;
25917;SDS011;13899;51.174;4.456;2022-09-27T14:28:25;4.03;;;1.23;;
25917;SDS011;13899;51.174;4.456;2022-09-27T14:33:47;8.57;;;2.60;;
25917;SDS011;13899;51.174;4.456;2022-09-27T14:36:30;5.75;;;1.90;;
25917;SDS011;13899;51.174;4.456;2022-09-27T14:41:46;3.72;;;2.00;;
25917;SDS011;13899;51.174;4.456;2022-09-27T14:44:16;5.25;;;1.58;;
25917;SDS011;13899;51.174;4.456;2022-09-27T14:46:43;7.38;;;1.85;;
25917;SDS011;13899;51.174;4.456;2022-09-27T14:51:49;7.10;;;1.45;;
25917;SDS011;13899;51.174;4.456;2022-09-27T14:54:22;6.65;;;1.70;;
25917;SDS011;13899;51.174;4.456;2022-09-27T14:56:51;4.47;;;1.67;;
25917;SDS011;13899;51.174;4.456;2022-09-27T14:59:24;5.18;;;1.35;;
25917;SDS011;13899;51.174;4.456;2022-09-27T15:01:55;4.70;;;2.00;;
25917;SDS011;13899;51.174;4.456;2022-09-27T15:04:24;4.40;;;1.88;;
25917;SDS011;13899;51.174;4.456;2022-09-27T15:06:55;3.22;;;1.10;;
25917;SDS011;13899;51.174;4.456;2022-09-27T15:09:22;5.00;;;1.60;;
25917;SDS011;13899;51.174;4.456;2022-09-27T15:11:53;3.35;;;1.15;;
25917;SDS011;13899;51.174;4.456;2022-09-27T15:14:24;2.40;;;1.40;;
25917;SDS011;13899;51.174;4.456;2022-09-27T15:16:53;2.78;;;1.27;;
25917;SDS011;13899;51.174;4.456;2022-09-27T15:19:24;3.72;;;1.15;;
25917;SDS011;13899;51.174;4.456;2022-09-27T15:21:52;4.88;;;1.50;;
25917;SDS011;13899;51.174;4.456;2022-09-27T15:27:23;5.43;;;2.65;;
25917;SDS011;13899;51.174;4.456;2022-09-27T15:29:50;4.80;;;1.38;;
25917;SDS011;13899;51.174;4.456;2022-09-27T15:32:21;5.95;;;1.95;;
25917;SDS011;13899;51.174;4.456;2022-09-27T15:34:48;2.90;;;1.63;;
25917;SDS011;13899;51.174;4.456;2022-09-27T15:37:33;5.18;;;1.45;;
25917;SDS011;13899;51.174;4.456;2022-09-27T15:40:36;4.30;;;1.50;;
25917;SDS011;13899;51.174;4.456;2022-09-27T15:43:33;4.13;;;1.20;;
25917;SDS011;13899;51.174;4.456;2022-09-27T15:46:24;6.20;;;1.40;;
25917;SDS011;13899;51.174;4.456;2022-09-27T15:51:44;3.05;;;1.60;;
25917;SDS011;13899;51.174;4.456;2022-09-27T15:54:11;4.63;;;1.92;;
25917;SDS011;13899;51.174;4.456;2022-09-27T15:56:40;5.65;;;1.60;;
25917;SDS011;13899;51.174;4.456;2022-09-27T15:59:06;8.15;;;1.95;;
25917;SDS011;13899;51.174;4.456;2022-09-27T16:01:45;4.88;;;2.05;;
25917;SDS011;13899;51.174;4.456;2022-09-27T16:04:11;11.20;;;1.87;;
25917;SDS011;13899;51.174;4.456;2022-09-27T16:06:38;3.20;;;1.40;;
25917;SDS011;13899;51.174;4.456;2022-09-27T16:09:15;5.53;;;1.77;;
25917;SDS011;13899;51.174;4.456;2022-09-27T16:11:54;2.90;;;1.60;;
25917;SDS011;13899;51.174;4.456;2022-09-27T16:14:19;3.15;;;1.20;;
25917;SDS011;13899;51.174;4.456;2022-09-27T16:16:46;3.80;;;1.50;;
25917;SDS011;13899;51.174;4.456;2022-09-27T16:19:19;6.25;;;1.20;;
25917;SDS011;13899;51.174;4.456;2022-09-27T16:24:14;2.27;;;1.30;;
25917;SDS011;13899;51.174;4.456;2022-09-27T16:26:41;3.35;;;1.58;;
25917;SDS011;13899;51.174;4.456;2022-09-27T16:29:12;3.65;;;1.15;;
25917;SDS011;13899;51.174;4.456;2022-09-27T16:31:39;2.80;;;1.73;;
25917;SDS011;13899;51.174;4.456;2022-09-27T16:34:05;6.32;;;1.60;;
25917;SDS011;13899;51.174;4.456;2022-09-27T16:36:32;4.13;;;1.92;;
25917;SDS011;13899;51.174;4.456;2022-09-27T16:41:25;3.53;;;1.50;;
25917;SDS011;13899;51.174;4.456;2022-09-27T16:43:53;2.42;;;1.60;;
25917;SDS011;13899;51.174;4.456;2022-09-27T16:48:45;4.63;;;1.63;;
25917;SDS011;13899;51.174;4.456;2022-09-27T16:51:12;6.35;;;1.80;;
25917;SDS011;13899;51.174;4.456;2022-09-27T16:54:00;3.00;;;1.63;;
25917;SDS011;13899;51.174;4.456;2022-09-27T16:56:27;6.72;;;2.17;;
25917;SDS011;13899;51.174;4.456;2022-09-27T16:58:53;13.73;;;3.05;;
25917;SDS011;13899;51.174;4.456;2022-09-27T17:01:19;4.93;;;1.80;;
25917;SDS011;13899;51.174;4.456;2022-09-27T17:03:49;4.85;;;2.05;;
25917;SDS011;13899;51.174;4.456;2022-09-27T17:06:16;3.85;;;2.40;;
25917;SDS011;13899;51.174;4.456;2022-09-27T17:08:42;7.43;;;2.28;;
25917;SDS011;13899;51.174;4.456;2022-09-27T17:11:10;6.55;;;3.38;;
25917;SDS011;13899;51.174;4.456;2022-09-27T17:13:42;3.47;;;2.38;;
25917;SDS011;13899;51.174;4.456;2022-09-27T17:16:09;4.53;;;2.42;;
25917;SDS011;13899;51.174;4.456;2022-09-27T17:18:37;9.45;;;2.85;;
25917;SDS011;13899;51.174;4.456;2022-09-27T17:21:04;7.40;;;2.03;;
25917;SDS011;13899;51.174;4.456;2022-09-27T17:23:31;6.22;;;2.72;;
25917;SDS011;13899;51.174;4.456;2022-09-27T17:26:08;5.97;;;2.63;;
25917;SDS011;13899;51.174;4.456;2022-09-27T17:28:47;6.65;;;2.60;;
25917;SDS011;13899;51.174;4.456;2022-09-27T17:31:14;5.97;;;2.63;;
25917;SDS011;13899;51.174;4.456;2022-09-27T17:33:50;5.05;;;2.53;;
25917;SDS011;13899;51.174;4.456;2022-09-27T17:36:21;6.50;;;2.70;;
25917;SDS011;13899;51.174;4.456;2022-09-27T17:38:48;5.40;;;3.13;;
25917;SDS011;13899;51.174;4.456;2022-09-27T17:41:25;4.75;;;3.28;;
25917;SDS011;13899;51.174;4.456;2022-09-27T17:43:55;6.28;;;2.83;;
25917;SDS011;13899;51.174;4.456;2022-09-27T17:46:42;4.97;;;2.83;;
25917;SDS011;13899;51.174;4.456;2022-09-27T17:49:09;6.47;;;2.55;;
25917;SDS011;13899;51.174;4.456;2022-09-27T17:51:57;9.98;;;3.28;;
25917;SDS011;13899;51.174;4.456;2022-09-27T17:54:29;10.85;;;3.65;;
25917;SDS011;13899;51.174;4.456;2022-09-27T17:59:25;4.97;;;3.55;;
25917;SDS011;13899;51.174;4.456;2022-09-27T18:04:17;7.88;;;3.33;;
25917;SDS011;13899;51.174;4.456;2022-09-27T18:06:44;6.32;;;3.13;;
25917;SDS011;13899;51.174;4.456;2022-09-27T18:09:11;5.63;;;2.40;;
25917;SDS011;13899;51.174;4.456;2022-09-27T18:11:56;2.97;;;2.10;;
25917;SDS011;13899;51.174;4.456;2022-09-27T18:14:22;5.57;;;2.25;;
25917;SDS011;13899;51.174;4.456;2022-09-27T18:16:51;6.88;;;3.55;;
25917;SDS011;13899;51.174;4.456;2022-09-27T18:19:22;4.40;;;2.35;;
25917;SDS011;13899;51.174;4.456;2022-09-27T18:21:52;3.33;;;2.10;;
25917;SDS011;13899;51.174;4.456;2022-09-27T18:24:18;3.63;;;2.03;;
25917;SDS011;13899;51.174;4.456;2022-09-27T18:29:17;4.38;;;1.73;;
25917;SDS011;13899;51.174;4.456;2022-09-27T18:31:45;3.38;;;1.55;;